Terminal Aerodrome Forecast
Issued by NWS

Home | Current Version | Previous Version | Text Only | Print | Product List | Glossary On
Versions: 1 2 3 4 5 6 7 8 9 10 11 12 13
000
FTUS45 KABQ 142300 RRA
TAFAEG
TAF
KAEG 142342Z 1500/1524 17010G16KT P6SM SCT070 SCT110
     FM150200 19008KT P6SM SCT080 SCT120
     FM150500 VRB05KT P6SM SCT120
     FM151100 VRB05KT P6SM SCT035 SCT150
     FM152000 13010KT P6SM SCT070 SCT140=

USA.gov is the U.S. government's official web portal to all federal, state and local government web resources and services.